Terminal Aerodrome Forecast
Issued by NWS Sioux Falls, SD

Home | Current Version | Previous Version | Text Only | Print | Product List | Glossary On
Versions: 1 2 3 4 5 6 7 8 9 10 11 12 13 14 15 16
000
FTUS43 KFSD 290523
TAFSUX
TAF
KSUX 290523Z 2906/3006 02008KT P6SM BKN080
     FM291500 04012KT P6SM BKN120
     FM291700 04016G24KT P6SM OVC070
     FM292100 04017G25KT P6SM VCSH OVC030
     FM300200 04014KT P6SM -RA OVC020=

USA.gov is the U.S. government's official web portal to all federal, state and local government web resources and services.